createdAt,value
2023-02-08T00:01:28.410Z,24.40
2023-02-08T00:03:56.848Z,25.90
2023-02-08T00:06:25.390Z,28.50
2023-02-08T00:08:53.784Z,26.80
2023-02-08T00:11:22.179Z,24.50
2023-02-08T00:13:50.587Z,26.10
2023-02-08T00:16:19.219Z,20.20
2023-02-08T00:18:47.895Z,16.60
2023-02-08T00:21:18.798Z,18.50
2023-02-08T00:23:47.711Z,17.10
2023-02-08T00:26:16.841Z,15.70
2023-02-08T00:28:45.468Z,12.00
2023-02-08T00:31:14.029Z,15.10
2023-02-08T00:33:42.633Z,13.80
2023-02-08T00:36:12.057Z,14.10
2023-02-08T00:38:40.901Z,11.50
2023-02-08T00:41:10.023Z,12.80
2023-02-08T00:43:38.521Z,19.20
2023-02-08T00:46:08.154Z,17.40
2023-02-08T00:48:36.592Z,19.20
2023-02-08T00:51:10.341Z,14.50
2023-02-08T00:53:41.328Z,10.90
2023-02-08T00:56:12.092Z,14.00
2023-02-08T00:58:41.063Z,12.00
2023-02-08T01:01:10.199Z,15.90
2023-02-08T01:03:41.485Z,15.40
2023-02-08T01:06:14.681Z,15.00
2023-02-08T01:08:43.824Z,13.30
2023-02-08T01:11:17.628Z,13.40
2023-02-08T01:13:46.192Z,14.10
2023-02-08T01:16:24.563Z,15.80
2023-02-08T01:18:56.110Z,15.20
2023-02-08T01:21:28.658Z,14.30
2023-02-08T01:23:57.514Z,13.70
2023-02-08T01:26:27.187Z,14.60
2023-02-08T01:28:56.577Z,13.80
2023-02-08T01:31:33.926Z,12.60
2023-02-08T01:34:04.498Z,12.10
2023-02-08T01:36:33.953Z,11.20
2023-02-08T01:39:04.429Z,12.10
2023-02-08T01:41:37.636Z,11.70
2023-02-08T01:44:06.269Z,10.50
2023-02-08T01:46:41.205Z,14.60
2023-02-08T01:49:33.624Z,14.10
2023-02-08T01:52:12.173Z,11.80
2023-02-08T01:55:00.662Z,14.40
2023-02-08T01:57:29.845Z,13.70
2023-02-08T02:00:13.990Z,14.40
2023-02-08T02:02:45.741Z,14.80
2023-02-08T02:05:17.594Z,16.10
2023-02-08T02:07:46.848Z,15.40
2023-02-08T02:10:21.982Z,17.60
2023-02-08T02:12:51.054Z,15.70
2023-02-08T02:15:19.796Z,18.20
2023-02-08T02:17:48.554Z,20.90
2023-02-08T02:21:00.786Z,18.10
2023-02-08T02:23:41.568Z,15.30
2023-02-08T02:26:34.611Z,16.30
2023-02-08T02:29:42.174Z,16.90
2023-02-08T02:32:34.655Z,19.60
2023-02-08T02:35:12.949Z,16.10
2023-02-08T02:37:41.274Z,16.70
2023-02-08T02:40:28.061Z,16.50
2023-02-08T02:43:41.510Z,17.20
2023-02-08T02:46:40.408Z,17.60
2023-02-08T02:49:29.225Z,19.30
2023-02-08T02:52:11.626Z,15.40
2023-02-08T02:55:07.707Z,15.60
2023-02-08T02:57:37.277Z,16.60
2023-02-08T03:00:12.106Z,17.60
2023-02-08T03:02:40.633Z,17.60
2023-02-08T03:05:12.360Z,17.60
2023-02-08T03:07:56.197Z,16.30
2023-02-08T03:10:49.346Z,20.40
2023-02-08T03:13:44.343Z,16.60
2023-02-08T03:16:20.256Z,17.70
2023-02-08T03:19:10.564Z,15.60
2023-02-08T03:22:08.227Z,15.10
2023-02-08T03:25:01.447Z,15.50
2023-02-08T03:27:50.474Z,19.30
2023-02-08T03:30:45.269Z,17.50
2023-02-08T03:33:27.228Z,16.00
2023-02-08T03:36:19.510Z,15.70
2023-02-08T03:38:50.889Z,14.70
2023-02-08T03:41:27.683Z,15.00
2023-02-08T03:44:03.563Z,14.60
2023-02-08T03:46:39.599Z,17.00
2023-02-08T03:49:15.222Z,16.80
2023-02-08T03:51:45.457Z,17.20
2023-02-08T03:54:24.402Z,17.20
2023-02-08T03:57:12.951Z,15.50
2023-02-08T03:59:47.278Z,19.10
2023-02-08T04:02:21.298Z,14.30
2023-02-08T04:04:51.632Z,17.00
2023-02-08T04:07:20.449Z,19.00
2023-02-08T04:09:49.014Z,17.80
2023-02-08T04:12:17.871Z,17.00
2023-02-08T04:14:46.353Z,16.80
2023-02-08T04:17:14.894Z,14.90
2023-02-08T04:19:43.361Z,17.50
2023-02-08T04:22:11.917Z,17.00
2023-02-08T04:24:41.041Z,19.60
2023-02-08T04:27:09.461Z,17.50
2023-02-08T04:29:37.973Z,17.70
2023-02-08T04:32:11.579Z,18.00
2023-02-08T04:34:40.920Z,17.80
2023-02-08T04:37:09.618Z,16.50
2023-02-08T04:39:38.553Z,17.80
2023-02-08T04:42:07.116Z,20.90
2023-02-08T04:44:35.770Z,23.30
2023-02-08T04:47:04.350Z,21.10
2023-02-08T04:49:32.755Z,21.50
2023-02-08T04:52:01.267Z,24.50
2023-02-08T04:54:29.869Z,19.60
2023-02-08T04:56:58.410Z,20.90
2023-02-08T04:59:26.864Z,22.50
2023-02-08T05:01:55.305Z,19.20
2023-02-08T05:04:23.727Z,20.30
2023-02-08T05:06:52.048Z,21.90
2023-02-08T05:09:20.569Z,19.60
2023-02-08T05:11:49.107Z,22.00
2023-02-08T05:14:17.693Z,20.60
2023-02-08T05:16:46.084Z,22.30
2023-02-08T05:19:14.610Z,19.70
2023-02-08T05:21:43.070Z,19.60
2023-02-08T05:24:12.567Z,22.50
2023-02-08T05:26:41.702Z,23.40
2023-02-08T05:29:10.732Z,23.70
2023-02-08T05:31:42.859Z,21.90
2023-02-08T05:34:12.331Z,20.70
2023-02-08T05:36:41.270Z,24.80
2023-02-08T05:39:09.714Z,21.60
2023-02-08T05:41:38.507Z,20.20
2023-02-08T05:44:07.096Z,24.50
2023-02-08T05:46:47.881Z,22.40
2023-02-08T05:49:21.212Z,27.60
2023-02-08T05:51:53.486Z,33.80
2023-02-08T05:54:22.308Z,25.30
2023-02-08T05:56:59.790Z,25.90
2023-02-08T05:59:35.510Z,27.40
2023-02-08T06:02:06.784Z,26.10
2023-02-08T06:04:39.208Z,25.30
2023-02-08T06:07:16.307Z,24.60
2023-02-08T06:09:47.069Z,25.20
2023-02-08T06:12:16.905Z,26.00
2023-02-08T06:14:45.610Z,23.00
2023-02-08T06:17:14.275Z,25.90
2023-02-08T06:19:46.122Z,23.70
2023-02-08T06:22:17.079Z,24.00
2023-02-08T06:24:48.682Z,17.20
2023-02-08T06:27:19.720Z,26.00
2023-02-08T06:29:55.658Z,28.80
2023-02-08T06:32:27.206Z,27.90
2023-02-08T06:34:58.410Z,25.10
2023-02-08T06:37:29.836Z,27.50
2023-02-08T06:40:08.816Z,48.70
2023-02-08T06:42:39.092Z,38.50
2023-02-08T06:45:13.722Z,37.10
2023-02-08T06:47:45.093Z,43.60
2023-02-08T06:50:15.301Z,37.60
2023-02-08T06:52:43.974Z,28.00
2023-02-08T06:55:13.044Z,27.80
2023-02-08T06:57:43.792Z,29.70
2023-02-08T07:00:13.926Z,38.40
2023-02-08T07:03:13.220Z,35.10
2023-02-08T07:05:58.671Z,28.20
2023-02-08T07:08:34.101Z,35.60
2023-02-08T07:11:09.238Z,37.60
2023-02-08T07:13:38.308Z,34.70
2023-02-08T07:16:09.783Z,42.20
2023-02-08T07:18:38.542Z,36.20
2023-02-08T07:21:07.069Z,35.40
2023-02-08T07:23:35.471Z,35.90
2023-02-08T07:26:13.294Z,35.40
2023-02-08T07:28:42.283Z,42.70
2023-02-08T07:31:14.722Z,36.60
2023-02-08T07:33:45.157Z,39.70
2023-02-08T07:36:13.657Z,38.80
2023-02-08T07:38:42.252Z,38.50
2023-02-08T07:41:14.264Z,35.60
2023-02-08T07:43:43.551Z,34.80
2023-02-08T07:46:21.574Z,41.40
2023-02-08T07:48:50.085Z,37.60
2023-02-08T07:51:18.984Z,36.80
2023-02-08T07:53:47.442Z,39.70
2023-02-08T07:56:15.992Z,32.60
2023-02-08T07:58:44.887Z,44.90
2023-02-08T08:01:21.990Z,40.80
2023-02-08T08:03:52.676Z,36.10
2023-02-08T08:06:22.763Z,36.90
2023-02-08T08:08:51.878Z,37.30
2023-02-08T08:11:22.044Z,33.30
2023-02-08T08:13:51.115Z,39.30
2023-02-08T08:16:19.910Z,36.50
2023-02-08T08:18:48.920Z,36.80
2023-02-08T08:21:18.118Z,40.20
2023-02-08T08:23:47.570Z,39.10
2023-02-08T08:26:20.358Z,36.70
2023-02-08T08:28:49.476Z,39.00
2023-02-08T08:31:21.689Z,41.60
2023-02-08T08:33:50.438Z,40.50
2023-02-08T08:36:19.237Z,39.50
2023-02-08T08:38:47.715Z,41.70
2023-02-08T08:41:18.108Z,35.20
2023-02-08T08:43:46.862Z,32.50
2023-02-08T08:46:16.729Z,34.80
2023-02-08T08:48:45.755Z,37.80
2023-02-08T08:51:14.492Z,40.40
2023-02-08T08:53:42.825Z,38.20
2023-02-08T08:56:12.195Z,37.20
2023-02-08T08:58:43.589Z,35.70
2023-02-08T09:01:13.989Z,38.10
2023-02-08T09:03:42.564Z,39.40
2023-02-08T09:06:11.164Z,35.60
2023-02-08T09:08:39.820Z,36.40
2023-02-08T09:11:12.526Z,41.40
2023-02-08T09:13:41.708Z,41.60
2023-02-08T09:16:17.321Z,34.50
2023-02-08T09:18:46.324Z,37.50
2023-02-08T09:21:20.059Z,37.30
2023-02-08T09:23:48.770Z,40.20
2023-02-08T09:26:19.908Z,41.90
2023-02-08T09:28:49.105Z,36.20
2023-02-08T09:31:30.585Z,37.20
2023-02-08T09:34:01.091Z,40.50
2023-02-08T09:36:33.575Z,36.10
2023-02-08T09:39:12.256Z,34.20
2023-02-08T09:42:17.151Z,37.20
2023-02-08T09:44:59.106Z,37.60
2023-02-08T09:47:36.480Z,34.50
2023-02-08T09:53:13.584Z,36.40
2023-02-08T09:55:48.119Z,38.00
2023-02-08T09:58:28.857Z,34.20
2023-02-08T10:00:58.036Z,34.90
2023-02-08T10:03:46.634Z,33.50
2023-02-08T10:06:18.585Z,30.20
2023-02-08T10:08:53.922Z,32.70
2023-02-08T10:11:43.309Z,38.10
2023-02-08T10:14:37.900Z,35.70
2023-02-08T10:17:39.224Z,36.20
2023-02-08T10:20:28.763Z,39.30
2023-02-08T10:23:25.516Z,40.60
2023-02-08T10:26:31.870Z,34.60
2023-02-08T10:29:35.049Z,33.90
2023-02-08T10:33:00.106Z,37.20
2023-02-08T10:35:37.310Z,42.40
2023-02-08T10:42:18.628Z,37.80
2023-02-08T10:45:23.910Z,36.50
2023-02-08T10:48:00.774Z,41.00
2023-02-08T10:50:50.047Z,35.50
2023-02-08T10:53:26.722Z,34.20
2023-02-08T10:55:55.118Z,37.60
2023-02-08T10:58:28.762Z,38.80
2023-02-08T11:00:58.980Z,34.50
2023-02-08T11:03:30.118Z,42.70
2023-02-08T11:05:58.527Z,39.50
2023-02-08T11:08:28.927Z,43.20
2023-02-08T11:11:02.812Z,38.20
2023-02-08T11:13:46.310Z,40.20
2023-02-08T11:16:27.924Z,37.70
2023-02-08T11:19:02.658Z,34.30
2023-02-08T11:21:37.956Z,43.30
2023-02-08T11:24:15.323Z,43.30
2023-02-08T11:26:43.883Z,41.00
2023-02-08T11:29:24.874Z,45.80
2023-02-08T11:32:00.259Z,42.80
2023-02-08T11:40:03.948Z,40.20
2023-02-08T11:42:40.626Z,38.40
2023-02-08T11:45:24.347Z,35.10
2023-02-08T11:47:53.694Z,41.80
2023-02-08T11:50:30.169Z,39.10
2023-02-08T11:53:03.625Z,56.90
2023-02-08T11:55:35.200Z,49.90
2023-02-08T11:58:25.102Z,43.60
2023-02-08T12:01:21.607Z,34.60
2023-02-08T12:03:50.939Z,36.10
2023-02-08T12:07:10.958Z,37.50
2023-02-08T12:10:19.558Z,39.90
2023-02-08T12:13:00.572Z,36.80
2023-02-08T12:15:32.008Z,33.90
2023-02-08T12:18:06.605Z,42.00
2023-02-08T12:20:54.009Z,35.90
2023-02-08T12:23:37.407Z,39.30
2023-02-08T12:26:17.817Z,37.90
2023-02-08T12:29:11.013Z,38.10
2023-02-08T12:32:15.386Z,33.50
2023-02-08T12:35:10.550Z,37.60
2023-02-08T12:38:16.433Z,33.70
2023-02-08T12:41:03.039Z,35.90
2023-02-08T12:44:11.268Z,39.20
2023-02-08T12:46:51.793Z,39.50
2023-02-08T12:49:57.904Z,36.90
2023-02-08T12:52:55.377Z,33.50
2023-02-08T12:55:31.747Z,38.00
2023-02-08T12:58:45.835Z,34.00
2023-02-08T13:01:37.145Z,41.10
2023-02-08T13:04:22.439Z,37.60
2023-02-08T13:07:01.313Z,39.40
2023-02-08T13:09:35.002Z,33.30
2023-02-08T13:12:34.566Z,37.30
2023-02-08T13:15:32.715Z,37.70
2023-02-08T13:18:20.977Z,31.40
2023-02-08T13:21:01.942Z,40.90
2023-02-08T13:23:52.733Z,37.80
2023-02-08T13:26:33.967Z,32.70
2023-02-08T13:29:03.812Z,37.00
2023-02-08T13:31:43.058Z,32.90
2023-02-08T13:41:42.654Z,34.90
2023-02-08T13:44:31.844Z,39.90
2023-02-08T13:47:01.181Z,35.40
2023-02-08T13:50:02.083Z,40.90
2023-02-08T13:58:18.784Z,43.90
2023-02-08T14:01:01.043Z,41.50
2023-02-08T14:03:35.945Z,39.60
2023-02-08T14:06:08.261Z,42.50
2023-02-08T14:08:40.094Z,42.80
2023-02-08T14:11:45.928Z,43.90
2023-02-08T14:14:37.964Z,41.00
2023-02-08T14:17:29.595Z,43.50
2023-02-08T14:20:02.236Z,41.00
2023-02-08T14:34:35.009Z,40.50
2023-02-08T14:37:33.285Z,41.50
2023-02-08T14:40:16.990Z,39.10
2023-02-08T14:43:00.812Z,40.60
2023-02-08T14:45:44.551Z,35.40
2023-02-08T14:48:37.312Z,34.60
2023-02-08T14:51:09.063Z,35.80
2023-02-08T14:54:01.645Z,32.40
2023-02-08T14:56:37.407Z,33.20
2023-02-08T14:59:18.382Z,40.00
2023-02-08T15:01:53.656Z,43.10
2023-02-08T15:07:43.382Z,52.50
2023-02-08T15:10:15.183Z,37.90
2023-02-08T15:12:49.392Z,39.10
2023-02-08T15:15:43.930Z,39.60
2023-02-08T15:18:22.573Z,39.70
2023-02-08T15:21:02.982Z,34.50
2023-02-08T15:23:31.900Z,42.60
2023-02-08T15:26:19.170Z,41.20
2023-02-08T15:28:47.725Z,40.40
2023-02-08T15:31:21.802Z,41.40
2023-02-08T15:33:54.373Z,40.10
2023-02-08T15:36:32.795Z,39.10
2023-02-08T15:39:18.021Z,39.50
2023-02-08T15:41:48.955Z,41.50
2023-02-08T15:44:30.126Z,52.20
2023-02-08T15:47:16.532Z,45.10
2023-02-08T15:49:50.681Z,63.30
2023-02-08T15:52:24.874Z,48.90
2023-02-08T15:54:53.313Z,54.00
2023-02-08T15:57:44.931Z,47.20
2023-02-08T16:00:20.306Z,53.20
2023-02-08T16:05:30.991Z,53.70
2023-02-08T16:08:00.814Z,54.70
2023-02-08T16:10:42.739Z,51.50
2023-02-08T16:13:31.928Z,56.50
2023-02-08T16:16:21.834Z,52.50
2023-02-08T16:19:23.865Z,53.50
2023-02-08T16:21:56.226Z,49.50
2023-02-08T16:24:28.116Z,53.30
2023-02-08T16:27:18.712Z,56.60
2023-02-08T16:29:47.880Z,50.30
2023-02-08T16:32:31.760Z,60.30
2023-02-08T16:35:01.462Z,53.20
2023-02-08T16:37:35.137Z,51.50
2023-02-08T16:40:37.609Z,51.50
2023-02-08T16:43:29.370Z,59.70
2023-02-08T16:46:24.492Z,55.50
2023-02-08T16:48:57.208Z,60.80
2023-02-08T16:51:35.273Z,63.70
2023-02-08T16:54:07.717Z,63.80
2023-02-08T16:56:37.711Z,80.30
2023-02-08T16:59:06.268Z,95.50
2023-02-08T17:01:35.890Z,82.30
2023-02-08T17:04:06.578Z,95.30
2023-02-08T17:06:37.522Z,83.90
2023-02-08T17:09:09.096Z,77.50
2023-02-08T17:11:37.830Z,71.50
2023-02-08T17:14:07.962Z,63.30
2023-02-08T17:16:39.828Z,62.20
2023-02-08T17:19:18.669Z,66.10
2023-02-08T17:21:47.067Z,60.80
2023-02-08T17:24:15.426Z,53.20
2023-02-08T17:26:44.661Z,55.30
2023-02-08T17:29:13.406Z,59.50
2023-02-08T17:31:41.870Z,59.50
2023-02-08T17:34:10.299Z,60.20
2023-02-08T17:36:39.735Z,60.20
2023-02-08T17:39:10.501Z,62.90
2023-02-08T17:41:39.932Z,57.80
2023-02-08T17:44:08.423Z,63.40
2023-02-08T17:46:36.934Z,66.80
2023-02-08T17:49:05.412Z,70.50
2023-02-08T17:51:34.391Z,66.10
2023-02-08T17:54:05.436Z,68.80
2023-02-08T17:56:36.736Z,70.60
2023-02-08T17:59:05.599Z,68.60
2023-02-08T18:01:35.115Z,65.30
2023-02-08T18:04:03.856Z,75.60
2023-02-08T18:06:32.303Z,74.60
2023-02-08T18:09:00.700Z,84.10
2023-02-08T18:11:29.038Z,76.00
2023-02-08T18:13:57.401Z,97.10
2023-02-08T18:16:27.932Z,82.50
2023-02-08T18:19:01.232Z,83.00
2023-02-08T18:21:33.238Z,82.90
2023-02-08T18:24:06.077Z,95.20
2023-02-08T18:26:35.251Z,115.70
2023-02-08T18:29:04.534Z,119.50
2023-02-08T18:31:33.138Z,123.90
2023-02-08T18:34:01.828Z,115.30
2023-02-08T18:36:30.744Z,101.30
2023-02-08T18:38:59.547Z,103.60
2023-02-08T18:41:30.409Z,90.40
2023-02-08T18:43:59.358Z,78.40
2023-02-08T18:46:29.198Z,74.60
2023-02-08T18:48:58.005Z,75.50
2023-02-08T18:51:27.132Z,82.90
2023-02-08T18:53:55.988Z,77.30
2023-02-08T18:56:27.326Z,74.00
2023-02-08T18:59:00.666Z,78.20
2023-02-08T19:01:29.587Z,79.30
2023-02-08T19:03:59.091Z,71.40
2023-02-08T19:06:31.411Z,74.10
2023-02-08T19:09:03.592Z,72.20
2023-02-08T19:11:41.622Z,63.90
2023-02-08T19:14:13.230Z,57.50
2023-02-08T19:16:43.055Z,57.30
2023-02-08T19:19:11.438Z,52.80
2023-02-08T19:21:40.480Z,59.00
2023-02-08T19:24:15.039Z,53.10
2023-02-08T19:26:43.844Z,66.00
2023-02-08T19:29:15.850Z,59.40
2023-02-08T19:31:45.607Z,57.30
2023-02-08T19:34:14.129Z,63.30
2023-02-08T19:37:00.788Z,65.50
2023-02-08T19:39:29.178Z,69.40
2023-02-08T19:41:58.988Z,75.80
2023-02-08T19:44:30.255Z,80.70
2023-02-08T19:46:59.407Z,73.70
2023-02-08T19:49:28.524Z,78.20
2023-02-08T19:51:57.459Z,80.20
2023-02-08T19:54:26.729Z,73.60
2023-02-08T19:56:55.890Z,78.50
2023-02-08T19:59:29.371Z,87.20
2023-02-08T20:01:58.161Z,86.50
2023-02-08T20:04:26.581Z,87.20
2023-02-08T20:06:54.971Z,85.40
2023-02-08T20:09:23.419Z,80.60
2023-02-08T20:11:59.737Z,81.50
2023-02-08T20:14:32.753Z,94.10
2023-02-08T20:17:02.559Z,89.00
2023-02-08T20:19:31.097Z,91.90
2023-02-08T20:21:59.488Z,88.10
2023-02-08T20:24:28.506Z,82.10
2023-02-08T20:26:57.136Z,98.30
2023-02-08T20:29:27.844Z,96.30
2023-02-08T20:31:57.389Z,94.30
2023-02-08T20:34:26.278Z,83.50
2023-02-08T20:37:06.832Z,84.00
2023-02-08T20:39:37.298Z,101.00
2023-02-08T20:42:06.192Z,112.40
2023-02-08T20:44:34.804Z,93.10
2023-02-08T20:47:03.287Z,102.80
2023-02-08T20:49:32.643Z,102.90
2023-02-08T20:52:01.476Z,101.30
2023-02-08T20:54:30.200Z,109.30
2023-02-08T20:56:58.708Z,112.50
2023-02-08T20:59:27.237Z,121.40
2023-02-08T21:01:56.032Z,111.60
2023-02-08T21:04:24.478Z,100.90
2023-02-08T21:06:53.096Z,105.60
2023-02-08T21:09:21.828Z,96.50
2023-02-08T21:11:51.999Z,96.40
2023-02-08T21:14:23.394Z,98.50
2023-02-08T21:16:58.916Z,104.00
2023-02-08T21:22:01.145Z,91.60
2023-02-08T21:24:31.077Z,99.60
2023-02-08T21:26:59.993Z,95.20
2023-02-08T21:29:29.363Z,98.20
2023-02-08T21:31:58.952Z,98.40
2023-02-08T21:34:27.679Z,96.20
2023-02-08T21:36:56.193Z,94.60
2023-02-08T21:39:24.598Z,105.00
2023-02-08T21:41:55.434Z,88.50
2023-02-08T21:44:24.026Z,98.50
2023-02-08T21:46:52.432Z,87.70
2023-02-08T21:49:39.670Z,84.40
2023-02-08T21:52:29.440Z,90.20
2023-02-08T21:54:57.917Z,95.70
2023-02-08T21:57:33.118Z,93.50
2023-02-08T22:00:05.949Z,97.30
2023-02-08T22:02:34.822Z,95.90
2023-02-08T22:05:23.099Z,93.10
2023-02-08T22:08:00.556Z,96.20
2023-02-08T22:10:32.521Z,99.20
2023-02-08T22:13:01.194Z,104.80
2023-02-08T22:15:31.000Z,107.60
2023-02-08T22:18:04.311Z,111.40
2023-02-08T22:20:36.181Z,118.30
2023-02-08T22:23:06.007Z,121.10
2023-02-08T22:25:34.413Z,108.40
2023-02-08T22:28:03.112Z,111.70
2023-02-08T22:30:31.619Z,107.30
2023-02-08T22:32:59.995Z,94.50
2023-02-08T22:35:28.632Z,100.80
2023-02-08T22:37:57.221Z,97.80
2023-02-08T22:40:25.657Z,104.20
2023-02-08T22:42:54.276Z,99.40
2023-02-08T22:45:22.808Z,99.90
2023-02-08T22:47:51.176Z,112.90
2023-02-08T22:50:19.589Z,111.40
2023-02-08T22:52:51.226Z,107.80
2023-02-08T22:55:19.734Z,117.60
2023-02-08T22:57:48.523Z,105.40
2023-02-08T23:00:17.462Z,111.80
2023-02-08T23:02:46.100Z,114.60
2023-02-08T23:05:14.811Z,117.00
2023-02-08T23:07:43.348Z,108.80
2023-02-08T23:10:12.065Z,110.40
2023-02-08T23:12:40.515Z,124.20
2023-02-08T23:15:11.067Z,128.60
2023-02-08T23:17:39.465Z,116.30
2023-02-08T23:20:08.674Z,105.40
2023-02-08T23:22:37.878Z,112.50
2023-02-08T23:25:07.077Z,107.10
2023-02-08T23:27:35.999Z,124.80
2023-02-08T23:30:07.910Z,114.50
2023-02-08T23:32:38.369Z,111.30
2023-02-08T23:35:09.948Z,111.00
2023-02-08T23:37:38.872Z,121.20
2023-02-08T23:40:08.152Z,125.30
2023-02-08T23:42:36.866Z,139.70
2023-02-08T23:45:06.044Z,118.20
2023-02-08T23:47:34.593Z,118.30
2023-02-08T23:50:03.759Z,111.90
2023-02-08T23:52:34.724Z,108.60
2023-02-08T23:55:04.763Z,101.70
2023-02-08T23:57:35.914Z,101.80
